createdAt,value
2023-01-30T00:00:05.494Z,74.0
2023-01-30T00:02:03.228Z,78.0
2023-01-30T00:04:02.612Z,76.0
2023-01-30T00:06:02.741Z,76.0
2023-01-30T00:08:02.839Z,76.0
2023-01-30T00:10:03.323Z,75.0
2023-01-30T00:12:02.787Z,77.0
2023-01-30T00:14:03.220Z,79.0
2023-01-30T00:16:03.850Z,78.0
2023-01-30T00:18:03.525Z,76.0
2023-01-30T00:20:03.032Z,79.0
2023-01-30T00:22:02.566Z,77.0
2023-01-30T00:24:03.543Z,78.0
2023-01-30T00:26:04.172Z,78.0
2023-01-30T00:28:03.314Z,77.0
2023-01-30T00:30:05.536Z,77.0
2023-01-30T00:32:03.530Z,77.0
2023-01-30T00:34:02.560Z,78.0
2023-01-30T00:36:02.897Z,79.0
2023-01-30T00:38:03.281Z,79.0
2023-01-30T00:40:02.765Z,78.0
2023-01-30T00:42:12.061Z,79.0
2023-01-30T00:44:12.803Z,78.0
2023-01-30T00:46:14.106Z,78.0
2023-01-30T00:48:03.550Z,79.0
2023-01-30T00:50:02.620Z,78.0
2023-01-30T00:52:03.907Z,78.0
2023-01-30T00:54:02.591Z,76.0
2023-01-30T00:56:04.258Z,78.0
2023-01-30T00:58:04.247Z,78.0
2023-01-30T01:00:04.939Z,79.0
2023-01-30T01:02:02.694Z,78.0
2023-01-30T01:04:03.260Z,79.0
2023-01-30T01:06:03.162Z,79.0
2023-01-30T01:08:03.646Z,79.0
2023-01-30T01:10:02.800Z,79.0
2023-01-30T01:12:03.229Z,78.0
2023-01-30T01:14:05.249Z,79.0
2023-01-30T01:16:02.581Z,81.0
2023-01-30T01:18:03.433Z,80.0
2023-01-30T01:20:03.440Z,81.0
2023-01-30T01:22:02.549Z,80.0
2023-01-30T01:24:03.428Z,80.0
2023-01-30T01:26:03.574Z,80.0
2023-01-30T01:28:03.144Z,80.0
2023-01-30T01:30:03.513Z,80.0
2023-01-30T01:32:02.838Z,79.0
2023-01-30T01:34:02.627Z,81.0
2023-01-30T01:36:04.665Z,80.0
2023-01-30T01:38:02.595Z,81.0
2023-01-30T01:40:12.753Z,82.0
2023-01-30T01:42:02.783Z,82.0
2023-01-30T01:44:05.407Z,81.0
2023-01-30T01:46:10.001Z,82.0
2023-01-30T01:48:06.486Z,82.0
2023-01-30T01:50:03.727Z,83.0
2023-01-30T01:52:07.712Z,83.0
2023-01-30T01:54:06.581Z,84.0
2023-01-30T01:56:05.878Z,84.0
2023-01-30T01:58:07.924Z,83.0
2023-01-30T02:00:11.053Z,83.0
2023-01-30T02:02:09.471Z,82.0
2023-01-30T02:04:08.664Z,83.0
2023-01-30T02:06:04.472Z,83.0
2023-01-30T02:08:08.034Z,83.0
2023-01-30T02:10:02.811Z,82.0
2023-01-30T02:12:04.551Z,81.0
2023-01-30T02:14:03.398Z,82.0
2023-01-30T02:16:05.199Z,82.0
2023-01-30T02:18:03.848Z,82.0
2023-01-30T02:20:12.669Z,83.0
2023-01-30T02:22:21.608Z,83.0
2023-01-30T02:24:21.836Z,81.0
2023-01-30T02:26:21.988Z,81.0
2023-01-30T02:28:21.606Z,79.0
2023-01-30T02:30:21.827Z,79.0
2023-01-30T02:32:10.308Z,81.0
2023-01-30T02:34:19.760Z,81.0
2023-01-30T02:36:13.125Z,79.0
2023-01-30T02:38:16.849Z,79.0
2023-01-30T02:40:18.028Z,77.0
2023-01-30T02:42:08.862Z,75.0
2023-01-30T02:44:07.034Z,76.0
2023-01-30T02:46:08.934Z,73.0
2023-01-30T02:48:06.281Z,74.0
2023-01-30T02:50:10.959Z,73.0
2023-01-30T02:52:06.281Z,74.0
2023-01-30T02:54:05.378Z,70.0
2023-01-30T02:56:04.001Z,75.0
2023-01-30T02:58:04.693Z,71.0
2023-01-30T03:00:06.403Z,80.0
2023-01-30T03:02:19.197Z,78.0
2023-01-30T03:04:18.020Z,78.0
2023-01-30T03:06:16.133Z,78.0
2023-01-30T03:08:18.129Z,76.0
2023-01-30T03:10:09.775Z,74.0
2023-01-30T03:12:07.774Z,76.0
2023-01-30T03:14:11.583Z,75.0
2023-01-30T03:16:10.126Z,76.0
2023-01-30T03:18:03.483Z,73.0
2023-01-30T03:20:03.209Z,73.0
2023-01-30T03:22:02.980Z,72.0
2023-01-30T03:24:02.542Z,76.0
2023-01-30T03:26:06.172Z,76.0
2023-01-30T03:28:04.959Z,77.0
2023-01-30T03:30:02.659Z,75.0
2023-01-30T03:32:03.637Z,70.0
2023-01-30T03:34:02.871Z,72.0
2023-01-30T03:36:02.827Z,67.0
2023-01-30T03:38:03.020Z,67.0
2023-01-30T03:40:04.097Z,67.0
2023-01-30T03:42:03.203Z,67.0
2023-01-30T03:44:02.860Z,67.0
2023-01-30T03:46:02.816Z,66.0
2023-01-30T03:48:03.258Z,66.0
2023-01-30T03:50:03.628Z,63.0
2023-01-30T03:52:02.529Z,63.0
2023-01-30T03:54:03.068Z,65.0
2023-01-30T03:56:02.852Z,64.0
2023-01-30T03:58:02.849Z,68.0
2023-01-30T04:00:04.224Z,71.0
2023-01-30T04:02:03.295Z,73.0
2023-01-30T04:04:03.330Z,73.0
2023-01-30T04:06:02.844Z,74.0
2023-01-30T04:08:03.109Z,68.0
2023-01-30T04:10:02.774Z,69.0
2023-01-30T04:12:02.543Z,71.0
2023-01-30T04:14:02.590Z,70.0
2023-01-30T04:16:14.400Z,70.0
2023-01-30T04:18:02.568Z,67.0
2023-01-30T04:20:03.803Z,71.0
2023-01-30T04:22:03.344Z,67.0
2023-01-30T04:24:03.171Z,67.0
2023-01-30T04:26:03.502Z,68.0
2023-01-30T04:28:03.087Z,67.0
2023-01-30T04:30:03.326Z,69.0
2023-01-30T04:32:02.735Z,71.0
2023-01-30T04:34:03.440Z,71.0
2023-01-30T04:36:04.789Z,72.0
2023-01-30T04:38:02.639Z,71.0
2023-01-30T04:40:03.306Z,71.0
2023-01-30T04:42:02.762Z,73.0
2023-01-30T04:44:03.206Z,74.0
2023-01-30T04:46:03.025Z,71.0
2023-01-30T04:48:02.873Z,74.0
2023-01-30T04:50:02.989Z,74.0
2023-01-30T04:52:03.324Z,74.0
2023-01-30T04:54:06.112Z,72.0
2023-01-30T04:56:02.775Z,73.0
2023-01-30T04:58:04.204Z,73.0
2023-01-30T05:00:03.671Z,75.0
2023-01-30T05:02:02.793Z,75.0
2023-01-30T05:04:04.386Z,74.0
2023-01-30T05:06:02.595Z,76.0
2023-01-30T05:08:02.911Z,76.0
2023-01-30T05:10:04.034Z,76.0
2023-01-30T05:12:02.593Z,76.0
2023-01-30T05:14:02.950Z,76.0
2023-01-30T05:16:03.285Z,76.0
2023-01-30T05:18:02.565Z,77.0
2023-01-30T05:20:02.898Z,77.0
2023-01-30T05:22:03.152Z,78.0
2023-01-30T05:24:02.558Z,77.0
2023-01-30T05:26:04.221Z,76.0
2023-01-30T05:28:03.133Z,76.0
2023-01-30T05:30:02.607Z,76.0
2023-01-30T05:32:04.698Z,76.0
2023-01-30T05:34:02.861Z,76.0
2023-01-30T05:36:02.862Z,75.0
2023-01-30T05:38:03.401Z,76.0
2023-01-30T05:40:03.536Z,77.0
2023-01-30T05:42:02.701Z,77.0
2023-01-30T05:44:02.681Z,75.0
2023-01-30T05:46:05.691Z,76.0
2023-01-30T05:48:02.707Z,77.0
2023-01-30T05:50:03.517Z,78.0
2023-01-30T05:52:02.911Z,79.0
2023-01-30T05:54:03.384Z,80.0
2023-01-30T05:56:05.332Z,79.0
2023-01-30T05:58:02.793Z,79.0
2023-01-30T06:00:03.472Z,79.0
2023-01-30T06:02:03.546Z,78.0
2023-01-30T06:04:03.196Z,77.0
2023-01-30T06:06:03.815Z,77.0
2023-01-30T06:08:02.690Z,77.0
2023-01-30T06:10:02.795Z,77.0
2023-01-30T06:12:02.644Z,74.0
2023-01-30T06:14:02.883Z,76.0
2023-01-30T06:16:03.613Z,76.0
2023-01-30T06:18:03.319Z,77.0
2023-01-30T06:20:02.624Z,77.0
2023-01-30T06:22:02.959Z,76.0
2023-01-30T06:24:03.136Z,76.0
2023-01-30T06:26:04.961Z,76.0
2023-01-30T06:28:03.390Z,77.0
2023-01-30T06:30:03.593Z,77.0
2023-01-30T06:32:02.707Z,77.0
2023-01-30T06:34:03.204Z,76.0
2023-01-30T06:36:02.655Z,75.0
2023-01-30T06:38:03.364Z,75.0
2023-01-30T06:40:03.411Z,75.0
2023-01-30T06:42:02.586Z,76.0
2023-01-30T06:44:02.612Z,76.0
2023-01-30T06:46:02.865Z,76.0
2023-01-30T06:48:04.093Z,76.0
2023-01-30T06:50:03.219Z,76.0
2023-01-30T06:52:02.872Z,76.0
2023-01-30T06:54:02.605Z,77.0
2023-01-30T06:56:02.695Z,78.0
2023-01-30T06:58:04.861Z,77.0
2023-01-30T07:00:03.185Z,77.0
2023-01-30T07:02:03.233Z,78.0
2023-01-30T07:04:02.766Z,78.0
2023-01-30T07:06:03.491Z,79.0
2023-01-30T07:08:02.588Z,78.0
2023-01-30T07:10:08.311Z,79.0
2023-01-30T07:12:02.547Z,79.0
2023-01-30T07:14:02.590Z,78.0
2023-01-30T07:16:03.449Z,79.0
2023-01-30T07:18:02.708Z,78.0
2023-01-30T07:20:02.680Z,79.0
2023-01-30T07:22:03.473Z,79.0
2023-01-30T07:24:02.553Z,79.0
2023-01-30T07:26:03.968Z,78.0
2023-01-30T07:28:03.685Z,77.0
2023-01-30T07:30:02.686Z,78.0
2023-01-30T07:32:04.320Z,77.0
2023-01-30T07:34:02.562Z,77.0
2023-01-30T07:36:03.261Z,78.0
2023-01-30T07:38:03.281Z,78.0
2023-01-30T07:40:02.825Z,79.0
2023-01-30T07:42:04.014Z,78.0
2023-01-30T07:44:03.597Z,78.0
2023-01-30T07:46:03.607Z,78.0
2023-01-30T07:48:02.784Z,79.0
2023-01-30T07:50:02.879Z,78.0
2023-01-30T07:52:03.302Z,78.0
2023-01-30T07:54:03.616Z,79.0
2023-01-30T07:56:07.140Z,80.0
2023-01-30T07:58:03.473Z,80.0
2023-01-30T08:00:04.229Z,79.0
2023-01-30T08:02:02.635Z,79.0
2023-01-30T08:04:02.800Z,78.0
2023-01-30T08:06:03.195Z,79.0
2023-01-30T08:08:03.429Z,78.0
2023-01-30T08:10:03.557Z,78.0
2023-01-30T08:12:03.219Z,79.0
2023-01-30T08:14:02.692Z,80.0
2023-01-30T08:16:04.711Z,80.0
2023-01-30T08:18:02.624Z,80.0
2023-01-30T08:20:04.709Z,81.0
2023-01-30T08:22:03.362Z,81.0
2023-01-30T08:24:02.731Z,81.0
2023-01-30T08:26:04.122Z,81.0
2023-01-30T08:28:04.282Z,81.0
2023-01-30T08:30:02.590Z,81.0
2023-01-30T08:32:03.658Z,82.0
2023-01-30T08:34:02.540Z,82.0
2023-01-30T08:36:02.620Z,81.0
2023-01-30T08:38:03.202Z,81.0
2023-01-30T08:40:02.886Z,79.0
2023-01-30T08:42:02.561Z,79.0
2023-01-30T08:44:02.759Z,79.0
2023-01-30T08:46:02.827Z,79.0
2023-01-30T08:48:05.418Z,80.0
2023-01-30T08:50:02.658Z,80.0
2023-01-30T08:52:03.578Z,80.0
2023-01-30T08:54:03.500Z,81.0
2023-01-30T08:56:02.723Z,81.0
2023-01-30T08:58:02.564Z,81.0
2023-01-30T09:00:03.568Z,81.0
2023-01-30T09:02:03.197Z,82.0
2023-01-30T09:04:03.275Z,82.0
2023-01-30T09:06:03.085Z,82.0
2023-01-30T09:08:03.167Z,82.0
2023-01-30T09:10:02.660Z,82.0
2023-01-30T09:12:03.172Z,82.0
2023-01-30T09:14:02.564Z,83.0
2023-01-30T09:16:03.945Z,83.0
2023-01-30T09:18:02.835Z,83.0
2023-01-30T09:20:02.597Z,83.0
2023-01-30T09:22:02.666Z,83.0
2023-01-30T09:24:02.584Z,83.0
2023-01-30T09:26:03.365Z,84.0
2023-01-30T09:28:02.901Z,84.0
2023-01-30T09:30:03.516Z,84.0
2023-01-30T09:32:02.707Z,84.0
2023-01-30T09:34:02.570Z,84.0
2023-01-30T09:36:02.621Z,84.0
2023-01-30T09:38:05.285Z,84.0
2023-01-30T09:40:04.082Z,84.0
2023-01-30T09:42:21.583Z,84.0
2023-01-30T09:44:21.630Z,84.0
2023-01-30T09:46:13.868Z,85.0
2023-01-30T09:48:13.380Z,84.0
2023-01-30T09:50:21.783Z,85.0
2023-01-30T09:52:17.086Z,84.0
2023-01-30T09:54:15.040Z,84.0
2023-01-30T09:56:02.792Z,84.0
2023-01-30T09:58:03.323Z,84.0
2023-01-30T10:00:08.236Z,85.0
2023-01-30T10:02:21.612Z,84.0
2023-01-30T10:04:11.253Z,84.0
2023-01-30T10:06:07.238Z,84.0
2023-01-30T10:08:20.913Z,84.0
2023-01-30T10:10:14.071Z,84.0
2023-01-30T10:12:14.960Z,84.0
2023-01-30T10:14:17.239Z,84.0
2023-01-30T10:16:09.274Z,83.0
2023-01-30T10:18:21.596Z,83.0
2023-01-30T10:20:21.817Z,84.0
2023-01-30T10:22:11.060Z,85.0
2023-01-30T10:24:19.308Z,85.0
2023-01-30T10:26:11.966Z,86.0
2023-01-30T10:28:11.467Z,86.0
2023-01-30T10:30:06.640Z,86.0
2023-01-30T10:32:10.608Z,86.0
2023-01-30T10:34:06.649Z,86.0
2023-01-30T10:36:08.148Z,86.0
2023-01-30T10:38:13.835Z,86.0
2023-01-30T10:40:14.484Z,86.0
2023-01-30T10:42:11.811Z,86.0
2023-01-30T10:44:08.989Z,85.0
2023-01-30T10:46:11.111Z,85.0
2023-01-30T10:48:24.681Z,85.0
2023-01-30T10:50:15.789Z,85.0
2023-01-30T10:52:17.612Z,86.0
2023-01-30T10:54:12.878Z,86.0
2023-01-30T10:56:10.926Z,86.0
2023-01-30T10:58:07.850Z,85.0
2023-01-30T11:00:09.947Z,84.0
2023-01-30T11:02:15.862Z,84.0
2023-01-30T11:04:07.397Z,85.0
2023-01-30T11:06:08.537Z,84.0
2023-01-30T11:08:02.788Z,85.0
2023-01-30T11:10:02.610Z,84.0
2023-01-30T11:12:02.777Z,84.0
2023-01-30T11:14:05.351Z,85.0
2023-01-30T11:16:08.123Z,85.0
2023-01-30T11:18:44.884Z,84.0
2023-01-30T11:20:08.570Z,85.0
2023-01-30T11:22:05.229Z,85.0
2023-01-30T11:24:11.917Z,85.0
2023-01-30T11:26:11.200Z,84.0
2023-01-30T11:28:05.896Z,84.0
2023-01-30T11:30:06.731Z,85.0
2023-01-30T11:32:05.616Z,85.0
2023-01-30T11:34:06.079Z,86.0
2023-01-30T11:36:05.520Z,86.0
2023-01-30T11:38:20.025Z,86.0
2023-01-30T11:40:18.871Z,87.0
2023-01-30T11:42:04.404Z,87.0
2023-01-30T11:44:05.351Z,87.0
2023-01-30T11:46:03.078Z,86.0
2023-01-30T11:48:05.897Z,86.0
2023-01-30T11:50:19.960Z,86.0
2023-01-30T11:52:04.576Z,86.0
2023-01-30T11:54:06.158Z,87.0
2023-01-30T11:56:08.808Z,87.0
2023-01-30T11:58:07.858Z,88.0
2023-01-30T12:00:03.249Z,88.0
2023-01-30T12:02:05.851Z,88.0
2023-01-30T12:04:07.125Z,88.0
2023-01-30T12:06:02.845Z,88.0
2023-01-30T12:08:14.129Z,88.0
2023-01-30T12:10:21.601Z,88.0
2023-01-30T12:12:03.136Z,88.0
2023-01-30T12:14:19.280Z,88.0
2023-01-30T12:16:15.038Z,88.0
2023-01-30T12:18:10.962Z,89.0
2023-01-30T12:20:10.475Z,89.0
2023-01-30T12:22:17.450Z,89.0
2023-01-30T12:24:13.781Z,89.0
2023-01-30T12:26:11.427Z,89.0
2023-01-30T12:28:11.012Z,90.0
2023-01-30T12:30:06.667Z,90.0
2023-01-30T12:34:02.933Z,90.0
2023-01-30T12:36:13.800Z,90.0
2023-01-30T12:38:13.490Z,90.0
2023-01-30T12:40:13.772Z,89.0
2023-01-30T12:42:22.759Z,89.0
2023-01-30T12:44:21.668Z,89.0
2023-01-30T12:46:16.121Z,89.0
2023-01-30T12:48:21.568Z,88.0
2023-01-30T12:50:20.862Z,88.0
2023-01-30T12:52:17.040Z,87.0
2023-01-30T12:54:11.793Z,87.0
2023-01-30T12:56:21.702Z,87.0
2023-01-30T12:58:11.748Z,86.0
2023-01-30T13:00:18.095Z,86.0
2023-01-30T13:02:21.744Z,86.0
2023-01-30T13:04:12.880Z,85.0
2023-01-30T13:06:10.798Z,85.0
2023-01-30T13:08:15.100Z,85.0
2023-01-30T13:10:13.484Z,85.0
2023-01-30T13:12:12.751Z,85.0
2023-01-30T13:14:15.151Z,85.0
2023-01-30T13:16:10.194Z,85.0
2023-01-30T13:18:10.124Z,85.0
2023-01-30T13:20:15.744Z,85.0
2023-01-30T13:22:08.685Z,85.0
2023-01-30T13:24:18.510Z,85.0
2023-01-30T13:26:05.728Z,85.0
2023-01-30T13:28:11.482Z,85.0
2023-01-30T13:30:05.967Z,85.0
2023-01-30T13:32:06.978Z,86.0
2023-01-30T13:34:06.969Z,86.0
2023-01-30T13:36:08.257Z,86.0
2023-01-30T13:38:05.101Z,85.0
2023-01-30T13:40:16.255Z,85.0
2023-01-30T13:42:08.610Z,86.0
2023-01-30T13:44:15.604Z,86.0
2023-01-30T13:46:08.727Z,86.0
2023-01-30T13:48:17.642Z,86.0
2023-01-30T13:50:21.612Z,86.0
2023-01-30T13:52:10.605Z,86.0
2023-01-30T13:54:13.160Z,86.0
2023-01-30T13:56:32.930Z,86.0
2023-01-30T13:58:15.026Z,86.0
2023-01-30T14:00:21.603Z,86.0
2023-01-30T14:02:17.805Z,86.0
2023-01-30T14:04:21.562Z,86.0
2023-01-30T14:06:09.623Z,87.0
2023-01-30T14:08:12.248Z,87.0
2023-01-30T14:10:07.103Z,87.0
2023-01-30T14:12:03.830Z,87.0
2023-01-30T14:14:05.917Z,87.0
2023-01-30T14:16:04.947Z,87.0
2023-01-30T14:18:07.469Z,87.0
2023-01-30T14:20:13.692Z,88.0
2023-01-30T14:22:14.592Z,88.0
2023-01-30T14:24:04.853Z,88.0
2023-01-30T14:26:03.667Z,88.0
2023-01-30T14:28:22.014Z,89.0
2023-01-30T14:30:12.377Z,89.0
2023-01-30T14:32:04.220Z,89.0
2023-01-30T14:34:02.801Z,89.0
2023-01-30T14:36:21.846Z,89.0
2023-01-30T14:38:10.856Z,90.0
2023-01-30T14:40:04.383Z,90.0
2023-01-30T14:42:19.032Z,90.0
2023-01-30T14:44:02.891Z,90.0
2023-01-30T14:46:08.342Z,91.0
2023-01-30T14:48:21.811Z,91.0
2023-01-30T14:50:03.633Z,91.0
2023-01-30T14:52:04.640Z,91.0
2023-01-30T14:54:07.840Z,91.0
2023-01-30T14:56:04.481Z,91.0
2023-01-30T14:58:04.555Z,90.0
2023-01-30T15:00:18.183Z,91.0
2023-01-30T15:02:21.562Z,90.0
2023-01-30T15:04:05.074Z,90.0
2023-01-30T15:06:02.659Z,91.0
2023-01-30T15:08:08.955Z,91.0
2023-01-30T15:10:11.165Z,91.0
2023-01-30T15:12:19.859Z,91.0
2023-01-30T15:14:11.890Z,91.0
2023-01-30T15:16:14.139Z,91.0
2023-01-30T15:18:13.712Z,91.0
2023-01-30T15:20:17.822Z,90.0
2023-01-30T15:22:13.978Z,90.0
2023-01-30T15:24:13.089Z,89.0
2023-01-30T15:26:18.180Z,89.0
2023-01-30T15:28:13.618Z,89.0
2023-01-30T15:30:18.592Z,89.0
2023-01-30T15:32:13.389Z,89.0
2023-01-30T15:34:03.405Z,89.0
2023-01-30T15:36:18.211Z,89.0
2023-01-30T15:38:02.608Z,89.0
2023-01-30T15:40:19.500Z,89.0
2023-01-30T15:42:08.466Z,88.0
2023-01-30T15:44:21.672Z,89.0
2023-01-30T15:46:10.523Z,89.0
2023-01-30T15:48:19.291Z,88.0
2023-01-30T15:50:04.855Z,88.0
2023-01-30T15:52:04.451Z,88.0
2023-01-30T15:54:10.033Z,89.0
2023-01-30T15:56:06.984Z,90.0
2023-01-30T15:58:06.477Z,89.0
2023-01-30T16:00:04.377Z,89.0
2023-01-30T16:02:07.464Z,89.0
2023-01-30T16:04:07.512Z,89.0
2023-01-30T16:06:03.895Z,89.0
2023-01-30T16:08:19.085Z,88.0
2023-01-30T16:10:08.027Z,88.0
2023-01-30T16:12:02.631Z,89.0
2023-01-30T16:14:02.905Z,89.0
2023-01-30T16:16:06.908Z,89.0
2023-01-30T16:18:10.358Z,89.0
2023-01-30T16:20:03.787Z,90.0
2023-01-30T16:22:06.082Z,90.0
2023-01-30T16:24:05.536Z,90.0
2023-01-30T16:26:04.952Z,90.0
2023-01-30T16:28:03.664Z,90.0
2023-01-30T16:30:08.239Z,90.0
2023-01-30T16:32:13.349Z,90.0
2023-01-30T16:34:02.861Z,90.0
2023-01-30T16:36:03.514Z,90.0
2023-01-30T16:38:03.713Z,90.0
2023-01-30T16:40:14.241Z,90.0
2023-01-30T16:42:13.815Z,89.0
2023-01-30T16:44:20.382Z,89.0
2023-01-30T16:46:21.731Z,89.0
2023-01-30T16:48:22.429Z,89.0
2023-01-30T16:50:03.259Z,89.0
2023-01-30T16:52:05.818Z,90.0
2023-01-30T16:54:05.063Z,90.0
2023-01-30T16:56:07.254Z,90.0
2023-01-30T16:58:04.157Z,90.0
2023-01-30T17:00:07.649Z,90.0
2023-01-30T17:02:05.574Z,87.0
2023-01-30T17:04:06.133Z,88.0
2023-01-30T17:06:12.071Z,89.0
2023-01-30T17:08:03.042Z,89.0
2023-01-30T17:10:02.680Z,89.0
2023-01-30T17:12:21.783Z,89.0
2023-01-30T17:14:18.630Z,89.0
2023-01-30T17:16:21.615Z,89.0
2023-01-30T17:18:02.896Z,89.0
2023-01-30T17:20:02.707Z,89.0
2023-01-30T17:22:04.860Z,89.0
2023-01-30T17:24:04.685Z,89.0
2023-01-30T17:26:02.865Z,88.0
2023-01-30T17:28:04.749Z,88.0
2023-01-30T17:30:03.152Z,89.0
2023-01-30T17:32:16.981Z,84.0
2023-01-30T17:34:02.575Z,81.0
2023-01-30T17:36:06.616Z,82.0
2023-01-30T17:38:06.020Z,82.0
2023-01-30T17:40:02.813Z,79.0
2023-01-30T17:42:02.771Z,79.0
2023-01-30T17:44:02.579Z,78.0
2023-01-30T17:46:02.832Z,77.0
2023-01-30T17:48:03.341Z,77.0
2023-01-30T17:50:02.838Z,78.0
2023-01-30T17:52:03.725Z,77.0
2023-01-30T17:54:02.607Z,77.0
2023-01-30T17:56:03.143Z,79.0
2023-01-30T17:58:02.884Z,77.0
2023-01-30T18:00:03.021Z,75.0
2023-01-30T18:02:02.843Z,76.0
2023-01-30T18:04:02.818Z,75.0
2023-01-30T18:06:03.236Z,76.0
2023-01-30T18:08:03.215Z,75.0
2023-01-30T18:10:03.359Z,78.0
2023-01-30T18:12:03.459Z,75.0
2023-01-30T18:14:02.646Z,76.0
2023-01-30T18:16:03.504Z,71.0
2023-01-30T18:18:02.607Z,70.0
2023-01-30T18:20:03.347Z,70.0
2023-01-30T18:22:02.618Z,75.0
2023-01-30T18:24:02.903Z,70.0
2023-01-30T18:26:03.387Z,72.0
2023-01-30T18:28:02.933Z,69.0
2023-01-30T18:30:03.354Z,70.0
2023-01-30T18:32:05.381Z,70.0
2023-01-30T18:34:02.651Z,71.0
2023-01-30T18:36:04.828Z,70.0
2023-01-30T18:38:03.088Z,70.0
2023-01-30T18:40:03.187Z,72.0
2023-01-30T18:42:02.748Z,70.0
2023-01-30T18:44:05.901Z,67.0
2023-01-30T18:46:03.975Z,65.0
2023-01-30T18:48:03.403Z,66.0
2023-01-30T18:50:02.711Z,66.0
2023-01-30T18:52:02.821Z,65.0
2023-01-30T18:54:03.322Z,67.0
2023-01-30T18:56:02.656Z,68.0
2023-01-30T18:58:03.156Z,64.0
2023-01-30T19:00:03.106Z,64.0
2023-01-30T19:02:02.587Z,63.0
2023-01-30T19:04:05.560Z,63.0
2023-01-30T19:06:03.513Z,63.0
2023-01-30T19:08:03.192Z,64.0
2023-01-30T19:10:02.735Z,63.0
2023-01-30T19:12:12.690Z,65.0
2023-01-30T19:14:03.643Z,64.0
2023-01-30T19:16:04.652Z,65.0
2023-01-30T19:18:03.153Z,65.0
2023-01-30T19:20:08.221Z,66.0
2023-01-30T19:22:03.673Z,67.0
2023-01-30T19:24:03.728Z,65.0
2023-01-30T19:26:03.578Z,65.0
2023-01-30T19:28:04.407Z,66.0
2023-01-30T19:30:03.784Z,65.0
2023-01-30T19:32:03.416Z,65.0
2023-01-30T19:34:05.736Z,66.0
2023-01-30T19:36:09.804Z,67.0
2023-01-30T19:38:03.011Z,66.0
2023-01-30T19:40:08.204Z,65.0
2023-01-30T19:42:02.836Z,67.0
2023-01-30T19:44:05.180Z,67.0
2023-01-30T19:46:02.604Z,67.0
2023-01-30T19:48:02.586Z,65.0
2023-01-30T19:50:02.602Z,64.0
2023-01-30T19:52:03.095Z,64.0
2023-01-30T19:54:05.725Z,64.0
2023-01-30T19:56:04.940Z,66.0
2023-01-30T19:58:03.010Z,64.0
2023-01-30T20:00:04.747Z,63.0
2023-01-30T20:02:02.840Z,65.0
2023-01-30T20:04:04.867Z,62.0
2023-01-30T20:06:13.245Z,59.0
2023-01-30T20:08:03.521Z,62.0
2023-01-30T20:10:04.881Z,61.0
2023-01-30T20:12:02.607Z,63.0
2023-01-30T20:14:04.956Z,59.0
2023-01-30T20:16:06.387Z,62.0
2023-01-30T20:18:02.763Z,62.0
2023-01-30T20:20:02.791Z,62.0
2023-01-30T20:22:07.688Z,60.0
2023-01-30T20:24:03.671Z,59.0
2023-01-30T20:26:05.454Z,59.0
2023-01-30T20:28:03.085Z,58.0
2023-01-30T20:30:03.337Z,60.0
2023-01-30T20:32:02.727Z,58.0
2023-01-30T20:34:05.379Z,61.0
2023-01-30T20:36:04.289Z,60.0
2023-01-30T20:38:02.678Z,60.0
2023-01-30T20:40:03.877Z,57.0
2023-01-30T20:42:02.757Z,60.0
2023-01-30T20:44:04.945Z,62.0
2023-01-30T20:46:04.942Z,61.0
2023-01-30T20:48:02.580Z,63.0
2023-01-30T20:50:02.712Z,62.0
2023-01-30T20:52:03.148Z,63.0
2023-01-30T20:54:05.401Z,64.0
2023-01-30T20:56:03.667Z,64.0
2023-01-30T20:58:03.516Z,66.0
2023-01-30T21:00:04.678Z,67.0
2023-01-30T21:02:03.090Z,66.0
2023-01-30T21:04:07.163Z,66.0
2023-01-30T21:06:03.574Z,66.0
2023-01-30T21:08:02.613Z,68.0
2023-01-30T21:10:02.712Z,66.0
2023-01-30T21:12:03.132Z,65.0
2023-01-30T21:14:03.498Z,62.0
2023-01-30T21:16:05.959Z,61.0
2023-01-30T21:18:02.572Z,61.0
2023-01-30T21:20:02.866Z,63.0
2023-01-30T21:22:07.073Z,61.0
2023-01-30T21:24:06.255Z,64.0
2023-01-30T21:26:04.730Z,60.0
2023-01-30T21:28:03.009Z,57.0
2023-01-30T21:30:02.970Z,57.0
2023-01-30T21:32:02.685Z,58.0
2023-01-30T21:34:03.409Z,58.0
2023-01-30T21:36:03.488Z,58.0
2023-01-30T21:38:12.097Z,59.0
2023-01-30T21:40:13.076Z,59.0
2023-01-30T21:42:11.987Z,59.0
2023-01-30T21:44:02.814Z,64.0
2023-01-30T21:46:03.679Z,63.0
2023-01-30T21:48:03.096Z,63.0
2023-01-30T21:50:02.703Z,63.0
2023-01-30T21:52:03.023Z,59.0
2023-01-30T21:54:04.162Z,62.0
2023-01-30T21:56:03.348Z,64.0
2023-01-30T21:58:02.558Z,58.0
2023-01-30T22:00:02.635Z,66.0
2023-01-30T22:02:02.778Z,64.0
2023-01-30T22:04:05.175Z,63.0
2023-01-30T22:06:03.851Z,62.0
2023-01-30T22:08:03.463Z,55.0
2023-01-30T22:10:02.684Z,55.0
2023-01-30T22:12:02.601Z,59.0
2023-01-30T22:14:03.524Z,57.0
2023-01-30T22:16:03.540Z,56.0
2023-01-30T22:18:03.547Z,54.0
2023-01-30T22:20:02.855Z,60.0
2023-01-30T22:22:03.819Z,55.0
2023-01-30T22:24:04.943Z,54.0
2023-01-30T22:26:03.601Z,56.0
2023-01-30T22:28:02.948Z,53.0
2023-01-30T22:30:03.373Z,54.0
2023-01-30T22:32:02.698Z,61.0
2023-01-30T22:34:04.567Z,64.0
2023-01-30T22:36:05.346Z,61.0
2023-01-30T22:38:02.619Z,59.0
2023-01-30T22:40:03.519Z,57.0
2023-01-30T22:42:02.573Z,56.0
2023-01-30T22:44:04.610Z,60.0
2023-01-30T22:46:05.283Z,56.0
2023-01-30T22:48:02.698Z,57.0
2023-01-30T22:50:04.055Z,58.0
2023-01-30T22:52:03.109Z,61.0
2023-01-30T22:54:05.404Z,58.0
2023-01-30T22:56:04.899Z,62.0
2023-01-30T22:58:02.573Z,62.0
2023-01-30T23:00:02.831Z,58.0
2023-01-30T23:02:03.710Z,64.0
2023-01-30T23:04:05.208Z,57.0
2023-01-30T23:06:05.321Z,57.0
2023-01-30T23:08:03.255Z,62.0
2023-01-30T23:10:02.661Z,65.0
2023-01-30T23:12:12.060Z,63.0
2023-01-30T23:14:08.689Z,66.0
2023-01-30T23:16:05.381Z,61.0
2023-01-30T23:18:12.082Z,59.0
2023-01-30T23:20:03.246Z,62.0
2023-01-30T23:22:03.354Z,63.0
2023-01-30T23:24:07.139Z,64.0
2023-01-30T23:26:03.726Z,64.0
2023-01-30T23:28:03.091Z,63.0
2023-01-30T23:30:03.571Z,62.0
2023-01-30T23:32:03.082Z,60.0
2023-01-30T23:34:05.804Z,61.0
2023-01-30T23:36:04.883Z,63.0
2023-01-30T23:38:12.040Z,63.0
2023-01-30T23:40:03.409Z,63.0
2023-01-30T23:42:02.852Z,63.0
2023-01-30T23:44:03.950Z,65.0
2023-01-30T23:46:14.381Z,65.0
2023-01-30T23:48:02.573Z,67.0
2023-01-30T23:50:02.603Z,64.0
2023-01-30T23:52:02.757Z,63.0
2023-01-30T23:54:03.786Z,68.0
2023-01-30T23:56:03.505Z,72.0
2023-01-30T23:58:02.813Z,72.0
